Airfield :
LOGIN :

Register | Disclaimer

   EN    FR    IT 

 










Legend :    VFR   Marginal VFR   IFR   Intensive IFR   Very Intensive IFR
Visi :
Ceiling :
>= 8 km
>= 3000ft
5 to 8 km
1000 to 3000 ft
1500m to 5 km
500 to 1000 ft
800 to 1500m
200 to 500 ft
< 800m
< 200 ft
Symbols :   Thunderstorms  Fog  Heavy snow  Heavy precipitations  Wind > 20 kt
SIGMETs :     Misc.  Thunderstorms  Icing  Turbulence  Mountain Waves  Volcanic Ashes






- Airport Elevation : 863 ft
- IATA code : ZAZ


LEZG - Zaragoza Aragon

CURRENT METAR :
  • 181300Z 30027KT 280V340 9999 SCT045 17/04 Q1018

EXPIRED METARs :
  • 181230Z 30025KT 9999 SCT040 17/05 Q1018
  • 181200Z 31022KT 280V340 9999 FEW040 17/05 Q1018
  • 181130Z 30025G36KT 9999 FEW035 17/05 Q1018
  • 181100Z 31025KT 270V340 9999 FEW035 16/05 Q1018
  • 181030Z 29025KT 260V330 9999 FEW035 16/05 Q1019
  • 181000Z 30025G35KT 9999 SCT035 15/05 Q1019
  • 180930Z 30024G34KT 9999 FEW035 14/05 Q1019
  • 180900Z 30024KT 9999 FEW030 14/05 Q1019
  • 180830Z 30024KT 270V340 9999 FEW035 13/05 Q1019

TAF TAF LEZG
Valid from the 18 at 12:00 until the 19 at 12:00 UTC


181100Z 1812/1912 30020KT 9999 FEW040 TX19/1814Z TN05/1906Z
TEMPO 1812/1818 30023G33KT
PROB30
TEMPO 1812/1817 30033G43KT
TEMPO 1818/1820 30015G25KT
BECMG 1822/1824 27005KT



MET'MAP, your aeronautical weather chart ! - Copyright ORBIFLY December 2007 - Disclaimer

ORBIFLY MET'MAP TEAM :

Programming & Development : Alexandra Zaïnal
Original concept : Baudouin d'Aumeries
Technical & hardware support : Manuel Goepfert
Assistance : Marc-Olivier Méhu




SOURCES & CREDITS :

   NOAA